Time;durP1;ratioP1;P1;durP2;ratioP2;P2;SDS_P1;SDS_P2;PMS_P1;PMS_P2;Temp;Humidity;BMP_temperature;BMP_pressure;BME280_temperature;BME280_humidity;BME280_pressure;Samples;Min_cycle;Max_cycle;Signal;HPM_P1;HPM_P2
2022/11/28 00:00:40;;;;;;;2.30;1.50;;;19.80;43.60;;;;;;5115611;28;20495;-11
2022/11/28 00:03:06;;;;;;;1.80;1.70;;;19.80;43.60;;;;;;5115483;28;20054;-11
2022/11/28 00:05:34;;;;;;;2.67;1.75;;;19.80;43.60;;;;;;5115822;28;20043;-11
2022/11/28 00:08:00;;;;;;;2.10;1.80;;;19.80;43.60;;;;;;5115831;28;20062;-11
2022/11/28 00:10:26;;;;;;;1.63;1.52;;;19.80;43.70;;;;;;5116102;28;20047;-10
2022/11/28 00:12:51;;;;;;;1.40;1.30;;;19.80;43.60;;;;;;5115801;28;20051;-11
2022/11/28 00:15:17;;;;;;;1.50;1.40;;;19.80;43.60;;;;;;5116013;28;20134;-11
2022/11/28 00:17:44;;;;;;;1.90;1.52;;;19.80;43.60;;;;;;5115076;28;20126;-10
2022/11/28 00:20:10;;;;;;;1.88;1.67;;;19.80;43.60;;;;;;5115322;28;20074;-10
2022/11/28 00:22:39;;;;;;;1.60;1.50;;;19.80;43.60;;;;;;5115616;28;20422;-10
2022/11/28 00:25:05;;;;;;;1.67;1.42;;;19.80;43.60;;;;;;5115532;28;20065;-10
2022/11/28 00:27:33;;;;;;;1.15;1.15;;;19.80;43.60;;;;;;5115296;28;20130;-11
2022/11/28 00:29:59;;;;;;;1.50;1.40;;;19.80;43.60;;;;;;5114799;28;20058;-11
2022/11/28 00:32:24;;;;;;;2.85;1.80;;;19.80;43.60;;;;;;5115305;28;20055;-11
2022/11/28 00:34:50;;;;;;;1.98;1.55;;;19.80;43.60;;;;;;5114956;28;20063;-11
2022/11/28 00:37:16;;;;;;;1.67;1.58;;;19.80;43.60;;;;;;5114958;28;20108;-11
2022/11/28 00:39:41;;;;;;;1.60;1.50;;;19.80;43.60;;;;;;5115019;28;20126;-11
2022/11/28 00:42:07;;;;;;;1.67;1.58;;;19.80;43.60;;;;;;5114905;28;20047;-10
2022/11/28 00:44:32;;;;;;;1.50;1.40;;;19.80;43.60;;;;;;5115298;28;20083;-11
2022/11/28 00:46:58;;;;;;;1.40;1.30;;;19.80;43.60;;;;;;5114766;28;20130;-10
2022/11/28 00:49:24;;;;;;;1.65;1.45;;;19.80;43.60;;;;;;5114934;28;20060;-11
2022/11/28 00:51:49;;;;;;;1.88;1.70;;;19.80;43.60;;;;;;5114870;28;20063;-11
2022/11/28 00:54:15;;;;;;;2.25;1.40;;;19.80;43.60;;;;;;5114829;28;20087;-11
2022/11/28 00:56:41;;;;;;;1.55;1.45;;;19.80;43.60;;;;;;5114712;28;20056;-10
2022/11/28 00:59:07;;;;;;;2.10;1.67;;;19.80;43.60;;;;;;5114735;28;20452;-10
2022/11/28 01:01:39;;;;;;;1.60;1.50;;;19.80;43.50;;;;;;5115170;28;20139;-11
2022/11/28 01:04:08;;;;;;;1.92;1.77;;;19.80;43.50;;;;;;5114791;28;20051;-11
2022/11/28 01:06:42;;;;;;;1.80;1.70;;;19.80;43.50;;;;;;5114574;28;20044;-11
2022/11/28 01:09:13;;;;;;;1.98;1.52;;;19.80;43.60;;;;;;5114970;28;20047;-10
2022/11/28 01:11:41;;;;;;;2.20;1.98;;;19.80;43.50;;;;;;5114550;28;20083;-11
2022/11/28 01:14:08;;;;;;;1.55;1.45;;;19.80;43.50;;;;;;5114579;28;20134;-10
2022/11/28 01:16:34;;;;;;;1.83;1.40;;;19.80;43.50;;;;;;5114464;28;20055;-11
2022/11/28 01:19:00;;;;;;;1.65;1.55;;;19.80;43.50;;;;;;5114411;28;20055;-11
2022/11/28 01:21:26;;;;;;;1.70;1.52;;;19.80;43.50;;;;;;5113001;28;20143;-10
2022/11/28 01:23:52;;;;;;;1.70;1.60;;;19.80;43.50;;;;;;5114361;28;20086;-11
2022/11/28 01:26:21;;;;;;;1.55;1.45;;;19.80;44.00;;;;;;5114221;28;20067;-11
2022/11/28 01:28:47;;;;;;;1.75;1.63;;;19.80;43.50;;;;;;5113739;28;20079;-11
2022/11/28 01:31:15;;;;;;;1.67;1.58;;;19.80;43.50;;;;;;5113681;28;20055;-11
2022/11/28 01:33:41;;;;;;;2.20;1.58;;;19.80;43.50;;;;;;5114312;28;20052;-10
2022/11/28 01:36:08;;;;;;;2.00;1.80;;;19.80;43.50;;;;;;5114114;28;20043;-11
2022/11/28 01:38:34;;;;;;;1.80;1.70;;;19.80;43.50;;;;;;5113816;28;20399;-11
2022/11/28 01:41:00;;;;;;;1.60;1.50;;;19.80;43.50;;;;;;5114428;28;20108;-10
2022/11/28 01:43:26;;;;;;;2.88;1.70;;;19.80;43.50;;;;;;5114074;28;20058;-11
2022/11/28 01:45:52;;;;;;;1.77;1.67;;;19.80;43.40;;;;;;5113977;28;20039;-11
2022/11/28 01:48:23;;;;;;;1.40;1.30;;;19.80;43.40;;;;;;5113732;28;20132;-11
2022/11/28 01:50:53;;;;;;;1.77;1.63;;;19.80;43.40;;;;;;5114552;28;20388;-11
2022/11/28 01:53:19;;;;;;;1.60;1.50;;;19.80;43.50;;;;;;5113739;28;20074;-11
2022/11/28 01:55:56;;;;;;;1.77;1.67;;;19.80;43.40;;;;;;5114073;28;20044;-11
2022/11/28 01:58:22;;;;;;;1.95;1.75;;;19.80;43.40;;;;;;5113523;28;20415;-11
2022/11/28 02:00:49;;;;;;;2.35;1.70;;;19.80;43.40;;;;;;5113734;28;20055;-11
2022/11/28 02:03:21;;;;;;;3.17;1.63;;;19.80;43.40;;;;;;5114025;28;20054;-11
2022/11/28 02:05:49;;;;;;;1.42;1.33;;;19.80;43.40;;;;;;5113664;28;20130;-10
2022/11/28 02:08:14;;;;;;;1.70;1.60;;;19.80;43.40;;;;;;5113487;28;20056;-11
2022/11/28 02:10:48;;;;;;;2.00;1.85;;;19.80;43.40;;;;;;5113600;28;20048;-10
2022/11/28 02:13:23;;;;;;;2.20;1.60;;;19.80;43.90;;;;;;5114185;28;20062;-11
2022/11/28 02:16:33;;;;;;;1.85;1.75;;;19.80;43.40;;;;;;5114037;28;20650;-10
2022/11/28 02:19:36;;;;;;;1.70;1.60;;;19.80;43.30;;;;;;5099359;28;20051;-11
2022/11/28 02:22:35;;;;;;;1.88;1.60;;;19.80;43.30;;;;;;5113935;28;20459;-11
2022/11/28 02:25:15;;;;;;;1.63;1.50;;;19.80;43.20;;;;;;5110647;28;20055;-10
2022/11/28 02:28:18;;;;;;;2.17;1.98;;;19.80;43.20;;;;;;5113302;28;20555;-11
2022/11/28 02:31:08;;;;;;;1.77;1.60;;;19.80;43.30;;;;;;5109145;28;20059;-10
2022/11/28 02:33:55;;;;;;;1.77;1.58;;;19.80;43.20;;;;;;5113575;28;20052;-11
2022/11/28 02:36:32;;;;;;;1.52;1.42;;;19.80;43.20;;;;;;5094906;28;20119;-11
2022/11/28 02:39:15;;;;;;;1.92;1.73;;;19.80;43.20;;;;;;5113387;28;20051;-11
2022/11/28 02:41:44;;;;;;;1.48;1.33;;;19.80;43.20;;;;;;5113114;28;20047;-11
2022/11/28 02:44:49;;;;;;;2.47;1.60;;;19.80;43.30;;;;;;5113149;28;20495;-10
2022/11/28 02:47:42;;;;;;;1.80;1.60;;;19.80;43.30;;;;;;5107634;28;20048;-11
2022/11/28 02:50:18;;;;;;;1.65;1.45;;;19.80;43.30;;;;;;5113042;28;20130;-11
2022/11/28 02:52:49;;;;;;;1.55;1.45;;;19.80;43.20;;;;;;5113264;28;20407;-10
2022/11/28 02:55:15;;;;;;;1.98;1.77;;;19.80;43.30;;;;;;5113307;28;20473;-10
2022/11/28 02:57:47;;;;;;;2.05;1.80;;;19.80;43.20;;;;;;5112889;28;20551;-10
2022/11/28 03:00:27;;;;;;;;;;;19.80;43.30;;;;;;5113414;28;20070;-10
2022/11/28 03:03:21;;;;;;;2.00;1.65;;;19.80;43.30;;;;;;5112932;28;19959;-11
2022/11/28 03:05:56;;;;;;;2.92;1.60;;;19.80;43.30;;;;;;5113111;28;20083;-11
2022/11/28 03:08:36;;;;;;;1.85;1.60;;;19.70;43.20;;;;;;5112825;28;20066;-11
2022/11/28 03:11:39;;;;;;;2.03;1.50;;;19.80;43.30;;;;;;5077930;28;20050;-11
2022/11/28 03:14:14;;;;;;;2.17;1.70;;;19.80;43.20;;;;;;5112744;28;20176;-11
2022/11/28 03:16:56;;;;;;;2.20;2.00;;;19.80;43.30;;;;;;5112671;28;20043;-11
2022/11/28 03:19:36;;;;;;;1.88;1.58;;;19.80;43.30;;;;;;5112722;28;20051;-11
2022/11/28 03:22:11;;;;;;;1.67;1.57;;;19.70;43.30;;;;;;5112677;28;20039;-11
2022/11/28 03:24:47;;;;;;;1.98;1.35;;;19.80;43.30;;;;;;5112596;28;20051;-10
2022/11/28 03:27:17;;;;;;;1.70;1.60;;;19.80;43.20;;;;;;5112378;28;20086;-10
2022/11/28 03:29:51;;;;;;;1.85;1.50;;;19.80;43.70;;;;;;5108440;28;20483;-11
2022/11/28 03:32:26;;;;;;;1.70;1.60;;;19.80;43.20;;;;;;5112287;28;20138;-11
2022/11/28 03:34:59;;;;;;;1.95;1.70;;;19.80;43.20;;;;;;5112736;28;20441;-11
2022/11/28 03:37:44;;;;;;;2.28;1.65;;;19.80;43.20;;;;;;5112055;28;20052;-11
2022/11/28 03:40:17;;;;;;;2.00;1.83;;;19.80;43.20;;;;;;5109430;28;20146;-10
2022/11/28 03:42:50;;;;;;;1.83;1.63;;;19.80;43.20;;;;;;5112677;28;20047;-10
2022/11/28 03:45:25;;;;;;;2.25;1.80;;;19.80;43.20;;;;;;5112311;28;20043;-10
2022/11/28 03:48:01;;;;;;;1.88;1.52;;;19.80;43.10;;;;;;5112291;28;20138;-11
2022/11/28 03:50:57;;;;;;;1.75;1.40;;;19.80;43.00;;;;;;5112701;28;20051;-11
2022/11/28 03:53:29;;;;;;;2.78;1.90;;;19.80;43.10;;;;;;5112006;28;20055;-11
2022/11/28 03:56:10;;;;;;;1.52;1.42;;;19.80;43.20;;;;;;5116233;28;20048;-11
2022/11/28 03:58:47;;;;;;;2.22;2.03;;;19.80;43.20;;;;;;5116003;28;20136;-11
2022/11/28 04:01:33;;;;;;;2.10;1.55;;;19.80;43.10;;;;;;5115766;28;20047;-11
2022/11/28 04:04:17;;;;;;;2.28;1.80;;;19.80;43.10;;;;;;5097465;28;20130;-10
2022/11/28 04:06:51;;;;;;;2.45;1.83;;;19.80;43.10;;;;;;5115729;28;20063;-11
2022/11/28 04:09:25;;;;;;;1.95;1.70;;;19.80;43.10;;;;;;5115651;28;20075;-11
2022/11/28 04:11:58;;;;;;;1.77;1.52;;;19.80;43.10;;;;;;5115825;28;20138;-11
2022/11/28 04:14:36;;;;;;;2.42;1.60;;;19.80;43.10;;;;;;5115848;28;20047;-11
2022/11/28 04:17:15;;;;;;;1.92;1.70;;;19.80;43.00;;;;;;5115303;28;20047;-11
2022/11/28 04:19:53;;;;;;;2.05;1.65;;;19.80;43.00;;;;;;5115253;28;20491;-10
2022/11/28 04:22:38;;;;;;;2.17;1.60;;;19.80;43.00;;;;;;5115090;28;20059;-10
2022/11/28 04:25:13;;;;;;;2.08;1.80;;;19.80;43.00;;;;;;5115774;28;20107;-11
2022/11/28 04:27:48;;;;;;;1.80;1.70;;;19.80;43.00;;;;;;5115404;28;20051;-11
2022/11/28 04:30:15;;;;;;;1.60;1.50;;;19.80;43.00;;;;;;5115279;28;20043;-11
2022/11/28 04:32:48;;;;;;;1.65;1.55;;;19.80;43.00;;;;;;5115661;28;20112;-11
2022/11/28 04:35:27;;;;;;;1.70;1.60;;;19.80;43.00;;;;;;5115198;28;20093;-11
2022/11/28 04:37:54;;;;;;;2.13;1.80;;;19.80;43.00;;;;;;5114838;28;20468;-11
2022/11/28 04:40:23;;;;;;;2.78;1.83;;;19.80;43.00;;;;;;5115095;28;20048;-11
2022/11/28 04:42:58;;;;;;;1.55;1.45;;;19.80;43.00;;;;;;5115385;28;20062;-10
2022/11/28 04:45:32;;;;;;;1.95;1.80;;;19.80;43.50;;;;;;5115259;28;20407;-11
2022/11/28 04:47:59;;;;;;;2.97;2.20;;;19.80;43.00;;;;;;5115044;28;20056;-11
2022/11/28 04:50:31;;;;;;;1.75;1.60;;;19.80;43.00;;;;;;5115150;28;20055;-10
2022/11/28 04:53:05;;;;;;;1.83;1.60;;;19.80;43.00;;;;;;5115198;28;20124;-11
2022/11/28 04:55:45;;;;;;;2.05;1.88;;;19.80;43.00;;;;;;5114945;28;20063;-11
2022/11/28 04:58:17;;;;;;;1.90;1.73;;;19.80;43.00;;;;;;5114367;28;20060;-11
2022/11/28 05:00:44;;;;;;;1.80;1.70;;;19.80;43.00;;;;;;5114999;28;20486;-11
2022/11/28 05:03:10;;;;;;;2.15;1.77;;;19.80;43.00;;;;;;5114761;28;20052;-10
2022/11/28 05:05:47;;;;;;;1.85;1.75;;;19.80;43.20;;;;;;5113454;28;20055;-10
2022/11/28 05:08:14;;;;;;;1.73;1.63;;;19.80;43.00;;;;;;5114291;28;20059;-10
2022/11/28 05:10:41;;;;;;;1.80;1.70;;;19.80;43.00;;;;;;5114555;28;20052;-11
2022/11/28 05:13:07;;;;;;;1.80;1.70;;;19.80;43.00;;;;;;5114563;28;20040;-11
2022/11/28 05:15:33;;;;;;;1.65;1.55;;;19.80;43.00;;;;;;5114747;28;20074;-11
2022/11/28 05:17:59;;;;;;;1.73;1.63;;;19.80;43.00;;;;;;5113976;28;20055;-11
2022/11/28 05:20:25;;;;;;;1.70;1.60;;;19.80;43.00;;;;;;5114455;28;20056;-11
2022/11/28 05:22:50;;;;;;;1.85;1.60;;;19.80;43.00;;;;;;5114671;28;20056;-10
2022/11/28 05:25:16;;;;;;;2.10;1.70;;;19.80;43.00;;;;;;5114618;28;20051;-10
2022/11/28 05:27:43;;;;;;;1.60;1.50;;;19.80;43.00;;;;;;5114266;28;20060;-10
2022/11/28 05:30:11;;;;;;;1.60;1.40;;;19.80;43.00;;;;;;5114225;28;20563;-11
2022/11/28 05:32:36;;;;;;;2.05;1.60;;;19.80;43.00;;;;;;5114138;28;20055;-11
2022/11/28 05:35:03;;;;;;;1.73;1.63;;;19.80;43.00;;;;;;5113897;28;20079;-11
2022/11/28 05:37:28;;;;;;;2.63;1.90;;;19.80;43.00;;;;;;5113889;28;20052;-11
2022/11/28 05:39:54;;;;;;;1.92;1.52;;;19.80;43.00;;;;;;5113774;28;20055;-11
2022/11/28 05:42:20;;;;;;;2.03;1.90;;;19.80;42.90;;;;;;5114083;28;20056;-10
2022/11/28 05:44:46;;;;;;;1.60;1.50;;;19.90;43.00;;;;;;5114073;28;20059;-11
2022/11/28 05:47:14;;;;;;;1.80;1.70;;;19.90;43.00;;;;;;5113654;28;20051;-11
2022/11/28 05:49:40;;;;;;;1.70;1.60;;;19.90;43.00;;;;;;5113644;28;20464;-10
2022/11/28 05:52:06;;;;;;;2.10;1.88;;;19.80;43.00;;;;;;5113543;28;20138;-11
2022/11/28 05:54:31;;;;;;;1.77;1.60;;;19.80;43.00;;;;;;5113822;28;20134;-11
2022/11/28 05:56:57;;;;;;;2.00;1.75;;;19.80;43.00;;;;;;5113866;28;20051;-11
2022/11/28 05:59:23;;;;;;;1.70;1.60;;;19.80;43.00;;;;;;5113684;28;20047;-11
2022/11/28 06:01:48;;;;;;;1.90;1.70;;;19.80;43.00;;;;;;5114268;28;20052;-11
2022/11/28 06:04:14;;;;;;;1.80;1.70;;;19.80;43.00;;;;;;5113663;28;20552;-11
2022/11/28 06:06:40;;;;;;;1.83;1.73;;;19.80;43.10;;;;;;5113597;28;20071;-11
2022/11/28 06:09:05;;;;;;;2.03;1.52;;;19.80;43.00;;;;;;5114232;28;20048;-11
2022/11/28 06:11:32;;;;;;;2.47;1.80;;;19.80;43.00;;;;;;5095349;28;20518;-10
2022/11/28 06:13:58;;;;;;;1.73;1.60;;;19.80;43.00;;;;;;5095246;28;20058;-10
2022/11/28 06:16:29;;;;;;;2.35;1.63;;;19.80;43.00;;;;;;5113055;28;20052;-11
2022/11/28 06:18:58;;;;;;;2.70;1.88;;;19.80;43.00;;;;;;5113790;28;20079;-10
2022/11/28 06:21:24;;;;;;;1.83;1.60;;;19.80;43.00;;;;;;5113286;28;20039;-11
2022/11/28 06:23:50;;;;;;;1.60;1.50;;;19.80;43.00;;;;;;5113949;28;20064;-11
2022/11/28 06:26:19;;;;;;;1.58;1.48;;;19.80;43.00;;;;;;5113554;28;20100;-11
2022/11/28 06:28:45;;;;;;;1.52;1.42;;;19.80;43.00;;;;;;5113430;28;20088;-11
2022/11/28 06:31:16;;;;;;;1.77;1.67;;;19.80;43.00;;;;;;5113392;28;20515;-10
2022/11/28 06:33:42;;;;;;;1.65;1.50;;;19.90;43.00;;;;;;5113226;28;20047;-11
2022/11/28 06:36:09;;;;;;;2.03;1.77;;;19.90;42.90;;;;;;5113529;28;20134;-11
2022/11/28 06:38:35;;;;;;;1.92;1.55;;;19.90;42.90;;;;;;5113125;28;20043;-11
2022/11/28 06:41:05;;;;;;;1.95;1.70;;;19.90;42.90;;;;;;5113171;28;20408;-10
2022/11/28 06:43:31;;;;;;;1.60;1.50;;;19.80;43.00;;;;;;5113029;28;20385;-11
2022/11/28 06:45:57;;;;;;;1.70;1.60;;;19.80;43.00;;;;;;5113088;28;20055;-10
2022/11/28 06:48:23;;;;;;;1.95;1.60;;;19.80;43.00;;;;;;5112943;28;20092;-11
2022/11/28 06:50:49;;;;;;;1.83;1.63;;;19.80;43.00;;;;;;5113061;28;20191;-11
2022/11/28 06:53:15;;;;;;;1.50;1.40;;;19.80;43.00;;;;;;5113259;28;20052;-10
2022/11/28 06:55:42;;;;;;;1.60;1.50;;;19.90;43.00;;;;;;5112968;28;20090;-10
2022/11/28 06:58:07;;;;;;;2.50;1.67;;;19.90;42.90;;;;;;5112498;28;20051;-10
2022/11/28 07:00:33;;;;;;;1.55;1.45;;;19.90;42.80;;;;;;5113474;28;20058;-11
2022/11/28 07:02:59;;;;;;;1.60;1.50;;;19.90;42.80;;;;;;5112821;28;20048;-10
2022/11/28 07:05:26;;;;;;;1.75;1.65;;;19.90;42.80;;;;;;5112549;28;20051;-10
2022/11/28 07:07:55;;;;;;;1.80;1.70;;;20.00;42.70;;;;;;5112157;28;20102;-10
2022/11/28 07:10:22;;;;;;;2.05;1.63;;;20.00;42.70;;;;;;5109546;28;20048;-10
2022/11/28 07:12:58;;;;;;;2.08;1.80;;;20.00;42.60;;;;;;5112324;28;20071;-10
2022/11/28 07:15:24;;;;;;;1.50;1.40;;;20.00;42.60;;;;;;5093258;28;20052;-10
2022/11/28 07:17:51;;;;;;;1.60;1.50;;;20.00;42.60;;;;;;5111472;28;20078;-11
2022/11/28 07:20:17;;;;;;;2.00;1.80;;;20.00;42.60;;;;;;5111594;28;20502;-10
2022/11/28 07:22:45;;;;;;;1.70;1.60;;;20.00;42.60;;;;;;5111568;28;20055;-11
2022/11/28 07:25:13;;;;;;;1.90;1.70;;;20.00;43.10;;;;;;5111706;28;20048;-11
2022/11/28 07:27:41;;;;;;;1.45;1.35;;;20.00;42.60;;;;;;5112938;28;20128;-10
2022/11/28 07:30:10;;;;;;;1.60;1.50;;;20.00;42.60;;;;;;5115031;28;20131;-10
2022/11/28 07:32:39;;;;;;;1.45;1.35;;;20.10;42.60;;;;;;5115115;28;20059;-10
2022/11/28 07:35:07;;;;;;;2.03;1.67;;;20.10;42.60;;;;;;5092946;28;20442;-11
2022/11/28 07:37:32;;;;;;;2.53;1.70;;;20.10;42.60;;;;;;5115583;28;20103;-11
2022/11/28 07:39:58;;;;;;;1.70;1.60;;;20.10;42.60;;;;;;5115153;28;20478;-11
2022/11/28 07:42:23;;;;;;;2.53;1.77;;;20.10;42.60;;;;;;5115474;28;20377;-11
2022/11/28 07:45:02;;;;;;;1.70;1.60;;;20.10;42.60;;;;;;5096459;28;20054;-11
2022/11/28 07:47:28;;;;;;;2.00;1.65;;;20.10;42.50;;;;;;5115385;28;20547;-11
2022/11/28 07:49:54;;;;;;;3.28;1.73;;;20.10;42.50;;;;;;5115233;28;20059;-11
2022/11/28 07:52:19;;;;;;;2.35;1.60;;;20.10;42.50;;;;;;5115180;28;20075;-11
2022/11/28 07:54:45;;;;;;;2.30;1.60;;;20.10;42.50;;;;;;5111962;28;20063;-11
2022/11/28 07:57:11;;;;;;;1.60;1.50;;;20.10;42.60;;;;;;5113628;28;20075;-11
2022/11/28 07:59:36;;;;;;;1.52;1.40;;;20.10;42.60;;;;;;5114935;28;20588;-11
2022/11/28 08:02:03;;;;;;;1.65;1.38;;;20.10;42.60;;;;;;5115116;28;20047;-11
2022/11/28 08:04:28;;;;;;;1.73;1.63;;;20.00;42.50;;;;;;5114888;28;20403;-11
2022/11/28 08:06:55;;;;;;;1.27;1.17;;;20.10;42.60;;;;;;5114487;28;20052;-11
2022/11/28 08:09:21;;;;;;;2.08;1.58;;;20.00;42.60;;;;;;5114849;28;20048;-11
2022/11/28 08:11:48;;;;;;;1.52;1.42;;;20.00;42.60;;;;;;5114317;28;20419;-11
2022/11/28 08:14:13;;;;;;;1.45;1.30;;;20.00;42.70;;;;;;5113962;28;20052;-12
2022/11/28 08:16:43;;;;;;;1.70;1.60;;;20.00;42.80;;;;;;5114422;28;20067;-11
2022/11/28 08:19:10;;;;;;;1.50;1.40;;;20.00;42.80;;;;;;5114472;28;20442;-11
2022/11/28 08:21:36;;;;;;;1.90;1.70;;;20.00;42.80;;;;;;5114526;28;20051;-11
2022/11/28 08:24:03;;;;;;;2.20;1.50;;;20.00;42.80;;;;;;5114707;28;20518;-11
2022/11/28 08:26:30;;;;;;;2.42;1.60;;;19.90;42.70;;;;;;5114730;28;20070;-11
2022/11/28 08:28:57;;;;;;;1.40;1.30;;;19.80;43.00;;;;;;5114491;28;20052;-11
2022/11/28 08:31:37;;;;;;;2.83;1.30;;;19.80;43.00;;;;;;5114076;28;20087;-11
2022/11/28 08:34:06;;;;;;;1.33;1.23;;;19.80;43.00;;;;;;5113972;28;20085;-11
2022/11/28 08:36:31;;;;;;;2.80;1.50;;;19.80;43.10;;;;;;5114491;28;20054;-10
2022/11/28 08:39:00;;;;;;;1.50;1.40;;;19.80;43.60;;;;;;5114537;28;20134;-11
2022/11/28 08:41:25;;;;;;;2.67;1.48;;;19.80;43.00;;;;;;5114865;28;20131;-11
2022/11/28 08:43:51;;;;;;;2.22;1.40;;;19.80;43.10;;;;;;5115396;28;20078;-11
2022/11/28 08:46:19;;;;;;;1.75;1.50;;;19.80;43.10;;;;;;5114885;28;20400;-11
2022/11/28 08:48:46;;;;;;;2.22;1.30;;;19.80;43.10;;;;;;5114663;28;20060;-12
2022/11/28 08:51:15;;;;;;;1.50;1.40;;;19.80;43.10;;;;;;5095702;28;20054;-12
2022/11/28 08:53:42;;;;;;;1.85;1.40;;;19.80;43.10;;;;;;5113099;28;20173;-11
2022/11/28 08:56:08;;;;;;;1.35;1.25;;;19.80;43.10;;;;;;5114609;28;20399;-11
2022/11/28 08:58:34;;;;;;;1.60;1.50;;;19.80;43.00;;;;;;5114628;28;20509;-11
2022/11/28 09:01:00;;;;;;;2.63;1.42;;;19.90;43.00;;;;;;5114128;28;20911;-11
2022/11/28 09:03:26;;;;;;;1.40;1.27;;;19.90;43.10;;;;;;5114062;28;20058;-11
2022/11/28 09:05:52;;;;;;;1.52;1.25;;;19.90;43.10;;;;;;5113294;28;20108;-11
2022/11/28 09:08:20;;;;;;;1.70;1.52;;;19.90;43.10;;;;;;5113300;28;20058;-11
2022/11/28 09:10:46;;;;;;;2.35;1.30;;;19.90;43.10;;;;;;5113999;28;20910;-11
2022/11/28 09:13:14;;;;;;;3.58;1.65;;;19.90;43.60;;;;;;5113879;28;20052;-11
2022/11/28 09:15:41;;;;;;;1.85;1.30;;;19.90;43.10;;;;;;5113465;28;20051;-11
2022/11/28 09:18:08;;;;;;;2.22;1.60;;;19.90;43.00;;;;;;5113805;28;20052;-11
2022/11/28 09:20:34;;;;;;;1.85;1.38;;;19.90;43.00;;;;;;5113166;28;20051;-11
2022/11/28 09:23:00;;;;;;;1.48;1.27;;;19.90;43.00;;;;;;5113554;28;20079;-11
2022/11/28 09:25:26;;;;;;;1.65;1.50;;;19.90;43.00;;;;;;5113932;28;20519;-11
2022/11/28 09:27:52;;;;;;;1.50;1.40;;;19.90;42.90;;;;;;5113385;28;20495;-11
2022/11/28 09:30:21;;;;;;;1.98;1.77;;;20.00;42.90;;;;;;5113329;28;20051;-11
2022/11/28 09:32:48;;;;;;;1.70;1.60;;;19.90;43.00;;;;;;5113037;28;20503;-11
2022/11/28 09:35:15;;;;;;;1.48;1.38;;;19.90;43.00;;;;;;5113095;28;20408;-11
2022/11/28 09:37:41;;;;;;;1.67;1.58;;;19.90;43.00;;;;;;5113267;28;20047;-11
2022/11/28 09:40:18;;;;;;;1.67;1.58;;;20.00;43.00;;;;;;5113344;28;20039;-11
2022/11/28 09:42:45;;;;;;;1.60;1.50;;;20.00;42.90;;;;;;5113536;28;20472;-12
2022/11/28 09:45:21;;;;;;;1.85;1.60;;;20.00;42.90;;;;;;5113495;28;20066;-11
2022/11/28 09:48:08;;;;;;;1.40;1.30;;;20.00;42.90;;;;;;5113934;28;20106;-11
2022/11/28 09:50:38;;;;;;;1.35;1.25;;;20.00;42.90;;;;;;5112695;28;20499;-11
2022/11/28 09:53:25;;;;;;;3.17;1.33;;;20.00;42.80;;;;;;5113684;28;20239;-11
2022/11/28 09:56:04;;;;;;;2.55;1.33;;;20.00;42.90;;;;;;5113356;28;20983;-11
2022/11/28 09:58:30;;;;;;;1.92;1.52;;;20.00;42.90;;;;;;5113130;28;20597;-11
2022/11/28 10:01:27;;;;;;;1.30;1.20;;;20.00;42.90;;;;;;5113361;28;20052;-11
2022/11/28 10:03:58;;;;;;;1.92;1.60;;;20.00;43.00;;;;;;5111985;28;20082;-13
2022/11/28 10:06:56;;;;;;;1.63;1.50;;;20.00;43.00;;;;;;5112776;28;20071;-11
2022/11/28 10:09:54;;;;;;;1.45;1.35;;;19.90;43.40;;;;;;5112003;28;20047;-11
2022/11/28 10:12:57;;;;;;;2.08;1.63;;;20.00;43.00;;;;;;5112529;28;20509;-9
2022/11/28 10:15:34;;;;;;;1.85;1.50;;;20.00;43.00;;;;;;5112822;28;20054;-11
2022/11/28 10:18:19;;;;;;;1.70;1.50;;;19.90;43.00;;;;;;5112395;28;20131;-12
2022/11/28 10:20:47;;;;;;;1.85;1.60;;;19.90;43.00;;;;;;5110295;28;20058;-12
2022/11/28 10:23:20;;;;;;;1.73;1.50;;;20.00;43.00;;;;;;5110572;28;20056;-11
2022/11/28 10:25:53;;;;;;;1.60;1.40;;;19.90;43.00;;;;;;5111819;28;20404;-12
2022/11/28 10:28:27;;;;;;;1.88;1.50;;;20.00;43.00;;;;;;5111160;28;20055;-13
2022/11/28 10:31:06;;;;;;;1.67;1.52;;;19.90;43.00;;;;;;5110791;28;20059;-11
2022/11/28 10:33:55;;;;;;;1.70;1.60;;;19.90;43.00;;;;;;5112273;28;20054;-11
2022/11/28 10:36:29;;;;;;;1.40;1.30;;;19.90;43.00;;;;;;5113141;28;20067;-11
2022/11/28 10:38:57;;;;;;;1.75;1.65;;;19.90;43.10;;;;;;5113718;28;20432;-11
2022/11/28 10:41:27;;;;;;;1.80;1.50;;;19.90;43.10;;;;;;5113166;28;20089;-11
2022/11/28 10:44:01;;;;;;;2.35;1.98;;;19.90;43.30;;;;;;5111266;28;20706;-12
2022/11/28 10:46:39;;;;;;;3.75;2.30;;;19.80;43.60;;;;;;5110572;28;20051;-12
2022/11/28 10:49:35;;;;;;;3.55;2.40;;;19.80;43.80;;;;;;5109287;28;20076;-12
2022/11/28 10:52:29;;;;;;;3.08;1.95;;;19.80;43.70;;;;;;5113022;28;20047;-11
2022/11/28 10:55:11;;;;;;;3.28;2.33;;;19.90;43.80;;;;;;5098355;28;20059;-11
2022/11/28 10:58:04;;;;;;;4.15;2.30;;;19.90;43.80;;;;;;5094629;28;20046;-11
2022/11/28 11:00:30;;;;;;;4.82;2.30;;;19.90;43.80;;;;;;5111257;28;20051;-11
2022/11/28 11:03:01;;;;;;;4.03;2.38;;;19.90;43.70;;;;;;5113245;28;20062;-11
2022/11/28 11:05:32;;;;;;;2.20;1.47;;;19.90;43.70;;;;;;5114250;28;20411;-12
2022/11/28 11:08:21;;;;;;;4.80;2.20;;;19.90;43.70;;;;;;5097017;28;20052;-12
2022/11/28 11:10:49;;;;;;;1.88;1.55;;;19.90;43.70;;;;;;5095708;28;20044;-13
2022/11/28 11:13:18;;;;;;;3.40;2.00;;;19.90;43.60;;;;;;5095423;28;20074;-11
2022/11/28 11:15:45;;;;;;;3.63;2.08;;;19.90;43.60;;;;;;5116086;28;20491;-11
2022/11/28 11:18:22;;;;;;;4.07;2.28;;;19.90;43.60;;;;;;5116236;28;20488;-11
2022/11/28 11:20:48;;;;;;;2.97;1.60;;;19.90;43.60;;;;;;5113666;28;20975;-12
2022/11/28 11:23:20;;;;;;;2.65;2.05;;;19.90;43.60;;;;;;5113778;28;20072;-12
2022/11/28 11:25:50;;;;;;;4.30;2.00;;;19.90;43.60;;;;;;5114467;28;20052;-12
2022/11/28 11:28:31;;;;;;;2.88;2.05;;;19.90;43.60;;;;;;5115133;28;20633;-12
2022/11/28 11:31:02;;;;;;;2.77;1.90;;;19.90;43.60;;;;;;5113749;28;20138;-12
2022/11/28 11:33:36;;;;;;;3.25;1.70;;;19.90;43.60;;;;;;5113846;28;20043;-12
2022/11/28 11:36:04;;;;;;;4.95;2.50;;;19.90;43.60;;;;;;5114527;28;20059;-12
2022/11/28 11:38:34;;;;;;;3.20;2.17;;;19.90;43.60;;;;;;5115184;28;20056;-11
2022/11/28 11:41:20;;;;;;;2.35;1.90;;;19.90;43.50;;;;;;5115248;28;20051;-11
2022/11/28 11:43:46;;;;;;;2.83;1.98;;;19.90;43.60;;;;;;5112546;28;20062;-12
2022/11/28 11:46:14;;;;;;;3.80;2.15;;;19.90;43.50;;;;;;5115704;28;20138;-11
2022/11/28 11:48:49;;;;;;;3.33;2.00;;;19.90;43.50;;;;;;5115542;28;20052;-11
2022/11/28 11:51:25;;;;;;;2.97;1.73;;;19.90;43.50;;;;;;5115620;28;20055;-11
2022/11/28 11:54:13;;;;;;;3.08;2.17;;;19.90;44.10;;;;;;5115520;28;20056;-11
2022/11/28 11:56:43;;;;;;;2.08;1.67;;;19.90;43.50;;;;;;5115844;28;20138;-11
2022/11/28 11:59:15;;;;;;;2.72;2.20;;;19.90;43.50;;;;;;5115457;28;20495;-11
2022/11/28 12:01:44;;;;;;;2.28;1.90;;;20.00;43.50;;;;;;5115701;28;20487;-11
2022/11/28 12:04:26;;;;;;;3.72;2.05;;;20.00;43.50;;;;;;5115466;28;20043;-11
2022/11/28 12:06:54;;;;;;;2.58;2.20;;;20.00;43.50;;;;;;5115825;28;20048;-11
2022/11/28 12:09:26;;;;;;;2.95;2.15;;;20.00;43.40;;;;;;5114762;28;20116;-11
2022/11/28 12:12:03;;;;;;;2.30;2.03;;;20.00;43.50;;;;;;5116040;28;20055;-11
2022/11/28 12:14:35;;;;;;;2.42;1.73;;;20.00;43.40;;;;;;5096360;28;20058;-11
2022/11/28 12:17:13;;;;;;;2.72;2.08;;;20.00;43.40;;;;;;5115533;28;20051;-11
2022/11/28 12:20:02;;;;;;;2.45;2.20;;;19.90;43.40;;;;;;5115045;28;20048;-11
2022/11/28 12:22:51;;;;;;;2.25;1.95;;;19.90;43.40;;;;;;5113436;28;20060;-12
2022/11/28 12:25:52;;;;;;;2.20;2.00;;;20.00;43.40;;;;;;5115146;28;20078;-12
2022/11/28 12:28:37;;;;;;;;;;;19.90;43.40;;;;;;5114991;28;20047;-11
2022/11/28 12:31:45;;;;;;;2.45;1.90;;;19.90;43.40;;;;;;5113560;28;19923;-13
2022/11/28 12:34:34;;;;;;;3.60;1.83;;;20.00;43.50;;;;;;5100699;28;20386;-11
2022/11/28 12:37:04;;;;;;;2.05;1.85;;;20.00;43.40;;;;;;5114402;28;20487;-11
2022/11/28 12:39:35;;;;;;;2.28;2.08;;;19.90;43.40;;;;;;5114967;28;20061;-11
2022/11/28 12:42:32;;;;;;;2.30;2.00;;;20.00;43.50;;;;;;5114694;28;20567;-11
2022/11/28 12:45:20;;;;;;;3.08;2.20;;;20.00;43.40;;;;;;5114502;28;20545;-11
2022/11/28 12:48:06;;;;;;;2.60;2.03;;;20.00;43.40;;;;;;5112674;28;20076;-13
2022/11/28 12:50:38;;;;;;;2.88;2.15;;;20.00;43.40;;;;;;5112173;28;20052;-12
2022/11/28 12:53:23;;;;;;;1.70;1.60;;;20.00;43.40;;;;;;5094117;28;20052;-12
2022/11/28 12:55:55;;;;;;;2.58;2.00;;;20.00;43.40;;;;;;5113030;28;20054;-12
2022/11/28 12:58:35;;;;;;;3.10;2.20;;;20.00;43.30;;;;;;5112269;28;20083;-13
2022/11/28 13:01:36;;;;;;;1.70;1.60;;;20.00;43.40;;;;;;5114122;28;20048;-11
2022/11/28 13:04:56;;;;;;;2.40;2.20;;;20.00;43.40;;;;;;5114920;28;20100;-11
2022/11/28 13:08:05;;;;;;;2.63;1.98;;;20.00;43.40;;;;;;4979142;28;20141;-11
2022/11/28 13:10:52;;;;;;;2.70;1.92;;;20.00;43.40;;;;;;4953870;28;20055;-12
2022/11/28 13:13:41;;;;;;;2.25;2.05;;;20.00;43.40;;;;;;5005409;28;20534;-11
2022/11/28 13:16:28;;;;;;;2.10;1.73;;;20.00;43.40;;;;;;5072173;28;20093;-11